Pagrindinis puslapis
METAR-TAF:

METAR-TAF

Oro uostai :

Elatas, Izraelis

platuma: 29-43-25N, ilguma: 35-00-41E, Aukštis: 88 m

Dabartinis oras

Ataskaita buvo paskelbta 2 valandos ir 27 minutes, ne 15:50 UTC
Vėjas 11 kt iš Šiaurės/Šiaurės Rytų
Temperatūra 28°C
Drėgmė 32%
Slėgis 1016 hPa
Matomumas 10 km arba daugiau
nėra debesų žemiau 1500 m ir nėra kamuolinių lietaus debesų

METAR: LLER 221550Z 02011KT CAVOK 28/10 Q1016

Laikas: 21:17 (18:17 UTC)

Prognozė

Ataskaita buvo paskelbta 1 valandą ir 14 minutes, ne 17:03 UTC
Prognozė galioja nuo 22 metu 18 UTC su 23 metu 18 UTC
Vėjas 10 kt iš Šiaurės
Matomumas 10 km arba daugiau
nėra debesų žemiau 1500 m ir nėra kamuolinių lietaus debesų
Tapsmas
nuo 23 metu 06 UTC su 23 metu 08 UTC
Vėjas 16 kt iš Šiaurės/Šiaurės Rytų

TAF: LLER 221703Z 2218/2318 36010KT CAVOK BECMG 2306/2308 02016KT TX29/2312Z TN20/2303Z

Orai ataskaitas ir orų prognozės (METAR, TAF).

turimą stotys yra geltonos ir raudonos taškus žemėlapyje.

Perkelti pele per norėdami pamatyti stoties vardą.

Tada spustelėkite, norėdami matyti oro stebėjimo ir prognozės.

Norėdami pakeisti žemėlapį: spustelėkite ant žalios mygtukų su juodo kryžiaus žemyn,; žalią mygtuką su brūkšneliu, jei norite nutolinti; arba žalių rodyklių gretimoms žemėlapius.


METAR-TAF: